Airfield :
LOGIN :

Register | Disclaimer

   EN    FR    IT 

 










Legend :    VFR   Marginal VFR   IFR   Intensive IFR   Very Intensive IFR
Visi :
Ceiling :
>= 8 km
>= 3000ft
5 to 8 km
1000 to 3000 ft
1500m to 5 km
500 to 1000 ft
800 to 1500m
200 to 500 ft
< 800m
< 200 ft
Symbols :   Thunderstorms  Fog  Heavy snow  Heavy precipitations  Wind > 20 kt
SIGMETs :     Misc.  Thunderstorms  Icing  Turbulence  Mountain Waves  Volcanic Ashes







- Airport Elevation : 294 ft
- IATA code : NAP


LIRN - Naples Capodichino

CURRENT METAR :
  • 200650Z 02004KT 340V060 9999 FEW035 SCT070 24/17 Q1017 NOSIG

EXPIRED METARs :
  • 200620Z 03003KT 360V060 9999 FEW035 SCT070 23/18 Q1017 NOSIG
  • 200550Z 02003KT 9999 FEW035 SCT070 23/18 Q1017 NOSIG
  • 200520Z 35003KT 9999 FEW035 SCT070 22/18 Q1017 NOSIG
  • 200450Z 35003KT 9999 SCT070 21/17 Q1017 NOSIG

TAF TAF LIRN
Valid from the 20 at 06:00 until the 21 at 06:00 UTC


200500Z 2006/2106 VRB05KT 9999 SCT030
TEMPO 2006/2012 TSRA
BECMG 2010/2012 20010KT
BECMG 2018/2020 VRB05KT
No reported NOTAMs for that airfield.
1 SIGMET reported for the Roma FIR (LIRR) :
 
Frequent thunderstorms
LIRR SIGMET 2 VALID 200700/200900 LIIB
LIRR ROMA FIR FRQ TS FCST WI N4131 E01246 - N3836 E01047 - N3815 E01310 - N3926 E01422 - N4056 E01435 - N4131 E01246 TOP ABV FL350 STNR NC=



MET'MAP, your aeronautical weather chart ! - Copyright ORBIFLY December 2007 - Disclaimer

ORBIFLY MET'MAP TEAM :

Programming & Development : Alexandra Zaïnal
Concept & Development : Baudouin d'Aumeries
Co-Development & Prog : Marc-Olivier Méhu
Technical & hardware support : Manuel Goepfert

Contact : metmap@orbifly.com




SOURCES & CREDITS :

   NOAA